Time;durP1;ratioP1;P1;durP2;ratioP2;P2;SDS_P1;SDS_P2;PMS_P1;PMS_P2;Temp;Humidity;BMP_temperature;BMP_pressure;BME280_temperature;BME280_humidity;BME280_pressure;Samples;Min_cycle;Max_cycle;Signal;HPM_P1;HPM_P2
2022/03/23 00:01:34;;;;;;;6.87;4.57;;;8.50;41.20;;;;;;5073327;28;20173;-48
2022/03/23 00:04:00;;;;;;;7.70;4.80;;;8.40;41.30;;;;;;5072743;28;20193;-50
2022/03/23 00:06:26;;;;;;;5.53;4.00;;;8.40;41.10;;;;;;5073254;28;20179;-52
2022/03/23 00:08:51;;;;;;;7.33;4.30;;;8.40;41.00;;;;;;5072909;28;20179;-51
2022/03/23 00:11:17;;;;;;;5.07;4.10;;;8.40;41.20;;;;;;5073003;28;20195;-55
2022/03/23 00:13:43;;;;;;;4.87;3.83;;;8.40;41.60;;;;;;5072595;28;20198;-54
2022/03/23 00:16:09;;;;;;;6.07;4.80;;;8.30;41.80;;;;;;5072976;28;20174;-50
2022/03/23 00:18:34;;;;;;;6.07;4.30;;;8.30;42.30;;;;;;5072971;28;20167;-53
2022/03/23 00:21:00;;;;;;;4.90;4.30;;;8.20;41.90;;;;;;5072717;28;20175;-48
2022/03/23 00:23:26;;;;;;;4.33;3.63;;;8.40;42.00;;;;;;5072433;28;20179;-52
2022/03/23 00:25:51;;;;;;;4.97;4.10;;;8.20;42.10;;;;;;5072630;28;20185;-50
2022/03/23 00:28:19;;;;;;;4.90;4.13;;;8.20;41.80;;;;;;5072950;28;20239;-53
2022/03/23 00:30:45;;;;;;;4.67;4.10;;;8.10;41.70;;;;;;5072590;28;20175;-48
2022/03/23 00:33:11;;;;;;;4.20;3.80;;;8.10;41.80;;;;;;5072245;28;20238;-53
2022/03/23 00:35:37;;;;;;;5.20;4.07;;;8.10;42.20;;;;;;5072383;28;20213;-52
2022/03/23 00:38:02;;;;;;;7.83;4.80;;;8.00;42.00;;;;;;5072572;28;20175;-49
2022/03/23 00:40:29;;;;;;;6.83;5.03;;;8.00;42.00;;;;;;5072461;28;20223;-53
2022/03/23 00:42:56;;;;;;;6.27;4.47;;;8.00;42.10;;;;;;5072054;28;20217;-51
2022/03/23 00:45:22;;;;;;;4.90;4.10;;;8.00;42.50;;;;;;5072421;28;20193;-50
2022/03/23 00:47:48;;;;;;;4.80;4.30;;;7.90;42.50;;;;;;5072628;28;20174;-54
2022/03/23 00:50:14;;;;;;;5.07;4.07;;;7.90;43.10;;;;;;5072280;28;20197;-53
2022/03/23 00:52:40;;;;;;;5.37;4.10;;;7.90;43.50;;;;;;5071785;28;20725;-55
2022/03/23 00:55:09;;;;;;;7.73;4.20;;;7.80;43.40;;;;;;5071944;28;20308;-53
2022/03/23 00:57:38;;;;;;;4.80;4.07;;;7.80;43.70;;;;;;5072108;28;20296;-53
2022/03/23 01:00:06;;;;;;;5.47;4.33;;;7.60;43.50;;;;;;5072195;28;20185;-49
2022/03/23 01:02:34;;;;;;;5.30;4.30;;;7.60;43.50;;;;;;5071613;28;20178;-51
2022/03/23 01:05:00;;;;;;;5.37;3.90;;;7.60;43.20;;;;;;5071984;28;20202;-53
2022/03/23 01:07:26;;;;;;;4.37;3.63;;;7.50;53.50;;;;;;5072008;28;20178;-56
2022/03/23 01:09:51;;;;;;;4.43;3.97;;;7.30;56.60;;;;;;5071983;28;20206;-50
2022/03/23 01:12:17;;;;;;;4.33;3.73;;;7.30;59.50;;;;;;5071795;28;20255;-50
2022/03/23 01:14:42;;;;;;;6.10;3.87;;;7.30;59.40;;;;;;5071675;28;20194;-53
2022/03/23 01:17:09;;;;;;;4.47;3.73;;;7.40;44.20;;;;;;5072041;28;20178;-53
2022/03/23 01:19:34;;;;;;;5.97;3.80;;;7.40;44.20;;;;;;5071630;28;20179;-56
2022/03/23 01:22:00;;;;;;;4.70;3.90;;;7.30;44.40;;;;;;5072138;28;20186;-55
2022/03/23 01:24:25;;;;;;;4.40;3.73;;;7.30;44.70;;;;;;5071427;28;20198;-50
2022/03/23 01:26:51;;;;;;;5.47;3.83;;;7.20;45.50;;;;;;5071890;28;20182;-53
2022/03/23 01:29:17;;;;;;;4.30;3.90;;;7.20;45.80;;;;;;5071616;28;20186;-51
2022/03/23 01:31:42;;;;;;;4.73;4.00;;;7.00;46.00;;;;;;5054007;28;20194;-52
2022/03/23 01:34:08;;;;;;;4.53;4.10;;;6.60;58.50;;;;;;5071181;28;20267;-48
2022/03/23 01:36:33;;;;;;;4.87;4.13;;;6.70;64.00;;;;;;5071689;28;20208;-55
2022/03/23 01:38:59;;;;;;;5.27;3.93;;;6.60;62.00;;;;;;5071848;28;20305;-50
2022/03/23 01:41:26;;;;;;;4.80;3.80;;;6.60;70.10;;;;;;5071538;28;20208;-49
2022/03/23 01:43:52;;;;;;;6.60;4.20;;;6.60;46.90;;;;;;5071407;28;20202;-51
2022/03/23 01:46:19;;;;;;;4.73;3.73;;;6.50;62.80;;;;;;5071559;28;20181;-52
2022/03/23 01:48:45;;;;;;;6.93;4.27;;;6.60;47.80;;;;;;5071606;28;20185;-49
2022/03/23 01:51:12;;;;;;;5.13;4.00;;;6.20;51.40;;;;;;5071351;28;20223;-56
2022/03/23 01:53:38;;;;;;;4.83;4.10;;;6.30;60.60;;;;;;5071303;28;20195;-55
2022/03/23 01:56:04;;;;;;;6.33;3.87;;;6.20;60.80;;;;;;5071456;28;20650;-50
2022/03/23 01:58:30;;;;;;;7.57;4.27;;;6.40;64.50;;;;;;5071620;28;20216;-55
2022/03/23 02:00:55;;;;;;;5.33;4.20;;;6.30;57.50;;;;;;5071563;28;20532;-57
2022/03/23 02:03:22;;;;;;;4.47;4.00;;;;;;;;;;5070857;28;20674;-56
2022/03/23 02:05:48;;;;;;;8.07;4.27;;;6.40;46.80;;;;;;5071583;28;20174;-53
2022/03/23 02:08:13;;;;;;;4.40;3.80;;;6.30;47.30;;;;;;5075126;28;20178;-55
2022/03/23 02:10:41;;;;;;;5.13;4.07;;;6.20;47.60;;;;;;5075361;28;20178;-52
2022/03/23 02:13:09;;;;;;;4.33;3.80;;;6.20;47.60;;;;;;5074884;28;20194;-51
2022/03/23 02:15:35;;;;;;;5.77;3.53;;;6.20;48.10;;;;;;5075417;28;20175;-55
2022/03/23 02:18:01;;;;;;;4.53;4.00;;;6.10;48.30;;;;;;5075001;28;20174;-53
2022/03/23 02:20:26;;;;;;;6.80;4.30;;;6.20;48.40;;;;;;5075223;28;20201;-55
2022/03/23 02:22:52;;;;;;;4.53;3.93;;;6.20;49.40;;;;;;5074795;28;20786;-50
2022/03/23 02:25:23;;;;;;;5.13;3.90;;;6.10;50.20;;;;;;5057474;28;20285;-54
2022/03/23 02:27:50;;;;;;;4.30;3.90;;;6.00;50.70;;;;;;5075192;28;20178;-52
2022/03/23 02:30:15;;;;;;;6.10;4.27;;;5.90;50.70;;;;;;5074812;28;20167;-54
2022/03/23 02:32:41;;;;;;;4.80;3.80;;;5.80;50.40;;;;;;5074613;28;20224;-52
2022/03/23 02:35:08;;;;;;;5.67;4.20;;;5.80;50.60;;;;;;5074582;28;20301;-53
2022/03/23 02:37:35;;;;;;;6.00;4.50;;;5.70;50.20;;;;;;5057011;28;20178;-56
2022/03/23 02:40:01;;;;;;;5.87;3.73;;;5.70;50.40;;;;;;5074693;28;20194;-53
2022/03/23 02:42:26;;;;;;;5.27;3.93;;;5.60;50.20;;;;;;5074596;28;20610;-51
2022/03/23 02:44:52;;;;;;;5.03;3.57;;;5.60;50.20;;;;;;5074471;28;20198;-53
2022/03/23 02:47:18;;;;;;;4.17;3.50;;;5.60;50.40;;;;;;5074727;28;20190;-50
2022/03/23 02:49:43;;;;;;;7.27;4.70;;;5.50;50.50;;;;;;5074450;28;20163;-52
2022/03/23 02:52:09;;;;;;;5.73;4.43;;;5.60;50.70;;;;;;5074523;28;20221;-50
2022/03/23 03:03:23;;;;;;;5.67;4.00;;;5.40;51.10;;;;;;5074427;28;20181;-49
2022/03/23 03:05:48;;;;;;;5.50;4.00;;;5.30;67.80;;;;;;5074173;28;20698;-51
2022/03/23 03:11:00;;;;;;;4.90;3.93;;;;;;;;;;5074417;28;20255;-52
2022/03/23 03:13:28;;;;;;;5.40;3.77;;;;;;;;;;5073927;28;20216;-55
2022/03/23 03:15:53;;;;;;;4.33;3.60;;;5.50;68.00;;;;;;5074286;28;20175;-53
2022/03/23 03:18:19;;;;;;;5.77;4.43;;;5.40;64.50;;;;;;5073722;28;20170;-51
2022/03/23 03:20:45;;;;;;;6.13;4.33;;;5.30;69.00;;;;;;5074208;28;20524;-51
2022/03/23 03:23:11;;;;;;;5.70;4.10;;;5.30;58.60;;;;;;5055466;28;20178;-55
2022/03/23 03:25:37;;;;;;;5.33;4.10;;;5.10;63.80;;;;;;5074092;28;20178;-50
2022/03/23 03:28:03;;;;;;;4.17;3.77;;;4.90;66.30;;;;;;5073695;28;20582;-54
2022/03/23 03:30:28;;;;;;;4.80;3.87;;;5.40;67.00;;;;;;5073923;28;20182;-51
2022/03/23 03:32:54;;;;;;;3.90;3.43;;;5.20;66.60;;;;;;5073329;28;20212;-53
2022/03/23 03:35:19;;;;;;;5.27;4.10;;;5.00;67.70;;;;;;5073709;28;20202;-51
2022/03/23 03:37:46;;;;;;;4.77;3.67;;;;;;;;;;5073727;28;20174;-54
2022/03/23 03:40:12;;;;;;;5.87;4.10;;;5.30;55.20;;;;;;5073601;28;20166;-49
2022/03/23 03:42:38;;;;;;;4.97;4.00;;;;;;;;;;5073533;28;20384;-54
2022/03/23 03:45:05;;;;;;;7.37;4.60;;;5.00;53.60;;;;;;5073424;28;20582;-54
2022/03/23 03:47:30;;;;;;;4.97;4.13;;;5.00;70.90;;;;;;5073014;28;20179;-49
2022/03/23 03:49:56;;;;;;;5.10;4.17;;;;;;;;;;5073349;28;20201;-52
2022/03/23 03:52:22;;;;;;;8.27;4.50;;;;;;;;;;5073122;28;20202;-54
2022/03/23 03:54:48;;;;;;;4.83;4.17;;;4.60;69.80;;;;;;5073216;28;20190;-49
2022/03/23 03:57:14;;;;;;;6.20;4.47;;;4.50;72.30;;;;;;5073505;28;20170;-49
2022/03/23 03:59:39;;;;;;;5.23;4.47;;;4.80;71.60;;;;;;5073135;28;20201;-54
2022/03/23 04:02:05;;;;;;;5.47;4.13;;;4.70;63.00;;;;;;5073311;28;20241;-54
2022/03/23 04:04:31;;;;;;;5.37;4.07;;;;;;;;;;5073009;28;20269;-54
2022/03/23 04:06:57;;;;;;;4.83;4.10;;;;;;;;;;5073122;28;20200;-52
2022/03/23 04:09:23;;;;;;;5.80;4.20;;;;;;;;;;5073159;28;20167;-52
2022/03/23 04:11:49;;;;;;;5.67;4.17;;;4.50;72.40;;;;;;5072874;28;20194;-49
2022/03/23 04:14:15;;;;;;;5.53;4.20;;;4.60;76.60;;;;;;5072736;28;20201;-56
2022/03/23 04:16:41;;;;;;;6.60;4.70;;;4.20;74.50;;;;;;5072828;28;20166;-50
2022/03/23 04:19:06;;;;;;;6.83;4.50;;;4.10;76.70;;;;;;5073028;28;20178;-50
2022/03/23 04:21:35;;;;;;;5.13;4.43;;;4.10;55.60;;;;;;5072708;28;20170;-56
2022/03/23 04:24:01;;;;;;;6.17;4.60;;;4.20;69.40;;;;;;5072540;28;20194;-50
2022/03/23 04:26:26;;;;;;;7.73;4.57;;;;;;;;;;5072721;28;20186;-52
2022/03/23 04:28:53;;;;;;;6.50;4.20;;;;;;;;;;5072272;28;20178;-56
2022/03/23 04:31:20;;;;;;;4.43;3.90;;;;;;;;;;5072531;28;20175;-53
2022/03/23 04:33:46;;;;;;;3.93;3.53;;;4.10;75.80;;;;;;5072089;28;20202;-55
2022/03/23 04:36:12;;;;;;;5.43;4.10;;;4.30;76.90;;;;;;5072726;28;20174;-49
2022/03/23 04:38:37;;;;;;;4.73;3.60;;;4.20;69.10;;;;;;5072440;28;20171;-51
2022/03/23 04:41:04;;;;;;;4.90;3.83;;;;;;;;;;5072524;28;20167;-53
2022/03/23 04:43:30;;;;;;;7.60;4.40;;;4.20;57.30;;;;;;5071953;28;20196;-52
2022/03/23 04:45:56;;;;;;;4.63;3.90;;;4.20;72.30;;;;;;5072454;28;20174;-51
2022/03/23 04:48:22;;;;;;;4.47;3.90;;;4.10;70.20;;;;;;5072248;28;20228;-56
2022/03/23 04:50:48;;;;;;;4.77;3.83;;;3.80;70.40;;;;;;5072416;28;20585;-54
2022/03/23 04:53:14;;;;;;;5.67;3.47;;;4.00;76.90;;;;;;5071803;28;20803;-49
2022/03/23 04:55:40;;;;;;;4.97;4.20;;;;;;;;;;5072366;28;20202;-53
2022/03/23 04:58:07;;;;;;;4.87;4.07;;;;;;;;;;5072286;28;20205;-50
2022/03/23 05:00:34;;;;;;;5.47;3.97;;;;;;;;;;5071904;28;20249;-52
2022/03/23 05:03:00;;;;;;;4.83;3.80;;;3.90;81.60;;;;;;5071978;28;20175;-51
2022/03/23 05:05:26;;;;;;;4.67;4.17;;;3.60;76.90;;;;;;5072136;28;20331;-51
2022/03/23 05:07:51;;;;;;;5.43;3.83;;;4.30;74.40;;;;;;5072243;28;20189;-51
2022/03/23 05:10:17;;;;;;;4.73;3.60;;;;;;;;;;5071868;28;20395;-50
2022/03/23 05:12:45;;;;;;;4.90;3.60;;;3.80;57.70;;;;;;5071790;28;20194;-51
2022/03/23 05:15:11;;;;;;;3.90;3.50;;;3.80;78.50;;;;;;5071645;28;20205;-53
2022/03/23 05:17:38;;;;;;;6.97;3.83;;;3.80;72.10;;;;;;5072071;28;20282;-50
2022/03/23 05:20:04;;;;;;;5.93;4.03;;;3.70;76.40;;;;;;5071801;28;20166;-51
2022/03/23 05:22:31;;;;;;;4.93;4.00;;;3.60;59.30;;;;;;5071680;28;20182;-51
2022/03/23 05:24:56;;;;;;;6.30;3.70;;;3.80;66.00;;;;;;5071869;28;20202;-54
2022/03/23 05:27:22;;;;;;;4.57;3.83;;;3.50;84.40;;;;;;5071609;28;20212;-50
2022/03/23 05:29:48;;;;;;;4.07;3.67;;;3.60;83.40;;;;;;5071841;28;20208;-52
2022/03/23 05:32:18;;;;;;;6.07;4.03;;;;;;;;;;5071378;28;20194;-55
2022/03/23 05:34:48;;;;;;;4.93;3.97;;;3.70;58.90;;;;;;5071511;28;20202;-56
2022/03/23 05:37:14;;;;;;;5.57;4.47;;;3.70;76.00;;;;;;5071843;28;20623;-53
2022/03/23 05:39:40;;;;;;;4.40;3.63;;;3.90;74.80;;;;;;5071599;28;20400;-56
2022/03/23 05:42:07;;;;;;;4.17;3.70;;;;;;;;;;5070220;28;20174;-55
2022/03/23 05:44:34;;;;;;;5.13;3.70;;;3.70;77.80;;;;;;5071335;28;20182;-54
2022/03/23 05:47:00;;;;;;;5.07;3.60;;;3.90;59.70;;;;;;5071303;28;20170;-51
2022/03/23 05:49:26;;;;;;;5.20;4.07;;;3.90;59.70;;;;;;5071331;28;20166;-50
2022/03/23 05:51:52;;;;;;;5.63;4.07;;;;;;;;;;5071460;28;20198;-55
2022/03/23 05:54:18;;;;;;;5.40;4.20;;;;;;;;;;5071015;28;20239;-53
2022/03/23 05:56:56;;;;;;;8.13;5.30;;;4.00;60.40;;;;;;5094807;22;20219;-51
2022/03/23 05:59:22;;;;;;;9.03;5.00;;;;;;;;;;5026374;28;20207;-53
2022/03/23 06:01:47;;;;;;;6.10;4.73;;;4.10;86.50;;;;;;5009550;28;20171;-47
2022/03/23 06:04:13;;;;;;;7.10;4.97;;;3.70;84.40;;;;;;5030831;28;20548;-47
2022/03/23 06:06:39;;;;;;;7.17;5.40;;;4.10;63.20;;;;;;5031246;28;20253;-50
2022/03/23 06:09:05;;;;;;;7.77;4.17;;;5.10;77.20;;;;;;5031157;28;20194;-50
2022/03/23 06:11:32;;;;;;;5.93;4.00;;;5.40;66.90;;;;;;5031166;28;20279;-53
2022/03/23 06:13:57;;;;;;;6.23;4.10;;;;;;;;;;5031042;28;20180;-51
2022/03/23 06:16:23;;;;;;;5.93;3.90;;;6.00;57.10;;;;;;5031033;28;20214;-55
2022/03/23 06:18:49;;;;;;;6.17;4.17;;;6.30;79.20;;;;;;5031310;28;20176;-50
2022/03/23 06:21:15;;;;;;;5.13;3.93;;;6.10;71.50;;;;;;5030998;28;20187;-49
2022/03/23 06:23:41;;;;;;;7.10;4.27;;;6.40;73.50;;;;;;5031043;28;20637;-49
2022/03/23 06:26:06;;;;;;;6.50;4.07;;;6.50;69.60;;;;;;5030480;28;20402;-48
2022/03/23 06:28:33;;;;;;;5.67;3.70;;;6.80;53.90;;;;;;5013522;28;20229;-51
2022/03/23 06:30:59;;;;;;;4.17;3.37;;;;;;;;;;5031014;28;20199;-54
2022/03/23 06:33:24;;;;;;;4.47;3.30;;;6.80;69.30;;;;;;5030753;28;20200;-51
2022/03/23 06:35:51;;;;;;;4.07;3.43;;;6.70;53.40;;;;;;5024221;28;20183;-50
2022/03/23 06:38:17;;;;;;;3.30;2.90;;;6.80;53.40;;;;;;5024719;28;20232;-53
2022/03/23 06:40:42;;;;;;;4.00;3.30;;;6.90;53.10;;;;;;5013266;28;20548;-49
2022/03/23 06:43:09;;;;;;;3.60;3.30;;;7.00;52.60;;;;;;5030516;28;20175;-51
2022/03/23 06:45:35;;;;;;;4.07;3.50;;;7.10;52.60;;;;;;5030766;28;20179;-51
2022/03/23 06:48:01;;;;;;;4.33;3.33;;;7.30;52.80;;;;;;5029800;28;20265;-52
2022/03/23 06:50:27;;;;;;;4.40;3.40;;;7.40;52.60;;;;;;5030734;28;20172;-52
2022/03/23 06:52:52;;;;;;;3.67;3.20;;;7.50;52.30;;;;;;5031620;28;20341;-48
2022/03/23 06:55:18;;;;;;;4.87;3.20;;;7.60;52.30;;;;;;5026430;28;20184;-50
2022/03/23 06:57:43;;;;;;;5.20;3.30;;;7.70;52.50;;;;;;5026521;28;20281;-49
2022/03/23 07:00:13;;;;;;;5.83;3.17;;;7.80;52.50;;;;;;5033971;28;20208;-51
2022/03/23 07:02:46;;;;;;;4.53;3.17;;;8.00;52.10;;;;;;5034238;28;20233;-54
2022/03/23 07:05:13;;;;;;;5.90;3.57;;;8.20;52.10;;;;;;5001268;28;20176;-52
2022/03/23 07:09:31;;;;;;;3.97;3.50;;;8.30;51.70;;;;;;5029923;28;20692;-50
2022/03/23 07:10:29;;;;;;;4.07;3.13;;;8.30;50.80;;;;;;5014233;28;20675;-50
2022/03/23 07:12:56;;;;;;;4.27;3.47;;;8.40;51.60;;;;;;5013813;28;20192;-52
2022/03/23 07:15:23;;;;;;;3.67;3.13;;;8.50;52.80;;;;;;5001266;28;20230;-54
2022/03/23 07:17:48;;;;;;;3.77;3.20;;;8.70;52.40;;;;;;5027824;28;20197;-52
2022/03/23 07:20:14;;;;;;;4.30;3.37;;;8.80;51.30;;;;;;5003987;28;20663;-49
2022/03/23 07:22:39;;;;;;;5.43;3.80;;;9.00;50.50;;;;;;5008413;28;20184;-55
2022/03/23 07:25:06;;;;;;;3.97;3.30;;;9.20;49.90;;;;;;5031101;28;20246;-52
2022/03/23 07:27:31;;;;;;;3.90;3.20;;;9.30;49.30;;;;;;5012264;28;20224;-51
2022/03/23 07:29:57;;;;;;;4.77;3.80;;;9.50;49.80;;;;;;5018844;28;20423;-48
2022/03/23 07:32:23;;;;;;;4.07;3.43;;;9.60;49.80;;;;;;5018545;28;20236;-49
2022/03/23 07:34:48;;;;;;;4.23;3.40;;;9.70;49.20;;;;;;5033483;28;20576;-49
2022/03/23 07:37:15;;;;;;;5.47;4.00;;;9.80;49.50;;;;;;5033964;28;20196;-56
2022/03/23 07:39:40;;;;;;;4.40;3.70;;;9.90;47.30;;;;;;5033610;28;20226;-55
2022/03/23 07:42:06;;;;;;;5.37;4.00;;;9.80;48.70;;;;;;5033838;28;20176;-52
2022/03/23 07:44:34;;;;;;;8.07;4.10;;;9.90;48.20;;;;;;5033578;28;20183;-49
2022/03/23 07:47:01;;;;;;;6.63;3.87;;;10.00;48.20;;;;;;5033524;28;20198;-48
2022/03/23 07:49:26;;;;;;;3.90;3.40;;;10.10;48.70;;;;;;5015864;28;20183;-48
2022/03/23 07:51:52;;;;;;;6.60;4.33;;;10.30;48.20;;;;;;5033345;28;20188;-53
2022/03/23 07:54:17;;;;;;;4.67;3.80;;;10.40;47.80;;;;;;5033269;28;20175;-50
2022/03/23 07:56:43;;;;;;;7.23;4.67;;;10.50;46.30;;;;;;5033251;28;20191;-54
2022/03/23 07:59:09;;;;;;;4.70;3.80;;;10.50;49.50;;;;;;5032113;28;20675;-49
2022/03/23 08:01:35;;;;;;;5.80;4.07;;;10.60;49.20;;;;;;5033120;28;20172;-48
2022/03/23 08:04:01;;;;;;;4.33;3.83;;;10.60;48.60;;;;;;5032180;28;20247;-52
2022/03/23 08:06:28;;;;;;;4.50;3.97;;;10.60;48.10;;;;;;5033317;28;20188;-49
2022/03/23 08:08:54;;;;;;;4.33;3.90;;;10.70;46.50;;;;;;5033247;28;20246;-52
2022/03/23 08:11:20;;;;;;;4.40;3.80;;;10.80;46.20;;;;;;5032006;28;20227;-52
2022/03/23 08:13:45;;;;;;;4.60;3.80;;;11.00;46.20;;;;;;5032689;28;20226;-51
2022/03/23 08:16:11;;;;;;;5.67;4.00;;;11.20;46.40;;;;;;5033263;28;20199;-51
2022/03/23 08:18:37;;;;;;;4.87;4.07;;;11.40;46.00;;;;;;5033055;28;20172;-55
2022/03/23 08:21:03;;;;;;;5.10;4.07;;;11.50;47.30;;;;;;5033077;28;20172;-51
2022/03/23 08:23:30;;;;;;;4.90;3.87;;;11.60;46.00;;;;;;5032721;28;20168;-57
2022/03/23 08:25:56;;;;;;;5.43;3.80;;;11.60;47.10;;;;;;5032801;28;20258;-52
2022/03/23 08:28:21;;;;;;;4.40;4.00;;;11.70;47.40;;;;;;5032863;28;20208;-54
2022/03/23 08:30:47;;;;;;;4.37;3.97;;;11.80;46.50;;;;;;5032694;28;20175;-50
2022/03/23 08:33:13;;;;;;;4.87;4.00;;;11.80;46.00;;;;;;5032590;28;20677;-49
2022/03/23 08:35:39;;;;;;;4.50;3.87;;;12.00;46.50;;;;;;5032618;28;20179;-48
2022/03/23 08:38:06;;;;;;;4.30;3.83;;;12.10;44.50;;;;;;5032724;28;20246;-49
2022/03/23 08:40:32;;;;;;;4.17;3.77;;;12.20;45.00;;;;;;5032414;28;20176;-51
2022/03/23 08:42:58;;;;;;;4.47;3.63;;;12.30;45.70;;;;;;5032416;28;20314;-52
2022/03/23 08:45:25;;;;;;;3.87;3.23;;;12.40;45.10;;;;;;5032551;28;20171;-51
2022/03/23 08:47:51;;;;;;;3.47;3.17;;;12.50;43.60;;;;;;5032343;28;20195;-54
2022/03/23 08:50:17;;;;;;;3.87;3.30;;;12.70;41.00;;;;;;5032527;28;20164;-57
2022/03/23 08:52:42;;;;;;;4.07;3.63;;;12.70;40.30;;;;;;5032033;28;20219;-53
2022/03/23 08:55:10;;;;;;;5.87;3.27;;;13.00;42.30;;;;;;5032561;28;20250;-53
2022/03/23 08:57:36;;;;;;;4.60;3.90;;;13.20;41.30;;;;;;5032226;28;20203;-54
2022/03/23 09:00:06;;;;;;;4.60;3.87;;;13.20;39.80;;;;;;5032364;28;20168;-52
2022/03/23 09:02:32;;;;;;;4.17;3.57;;;13.40;40.50;;;;;;5031988;28;20230;-50
2022/03/23 09:04:58;;;;;;;4.13;3.30;;;13.40;41.70;;;;;;5032454;28;20181;-51
2022/03/23 09:07:23;;;;;;;4.47;3.60;;;13.60;41.50;;;;;;5032135;28;20188;-50
2022/03/23 09:09:49;;;;;;;4.20;3.53;;;13.70;41.20;;;;;;5032134;28;20199;-53
2022/03/23 09:12:14;;;;;;;3.87;3.43;;;13.80;41.20;;;;;;5031868;28;20196;-48
2022/03/23 09:14:40;;;;;;;3.87;3.40;;;13.90;41.20;;;;;;5032209;28;20176;-54
2022/03/23 09:17:06;;;;;;;5.17;3.30;;;14.00;41.60;;;;;;5032000;28;20192;-52
2022/03/23 09:19:33;;;;;;;3.50;3.20;;;14.00;39.70;;;;;;5032074;28;20595;-50
2022/03/23 09:21:59;;;;;;;5.50;3.40;;;14.20;40.20;;;;;;5032291;28;20676;-53
2022/03/23 09:24:25;;;;;;;4.40;3.00;;;14.40;39.80;;;;;;5031683;28;20166;-49
2022/03/23 09:26:51;;;;;;;3.47;3.13;;;14.40;39.10;;;;;;5031935;28;20189;-56
2022/03/23 09:29:17;;;;;;;4.37;3.20;;;14.60;39.80;;;;;;5031803;28;20175;-57
2022/03/23 09:31:42;;;;;;;4.27;3.03;;;14.80;37.50;;;;;;5031902;28;20198;-49
2022/03/23 09:34:08;;;;;;;4.70;2.80;;;15.10;39.40;;;;;;5031460;28;20164;-50
2022/03/23 09:39:19;;;;;;;4.67;3.40;;;15.70;36.30;;;;;;5031345;28;20541;-51
2022/03/23 09:41:45;;;;;;;3.17;2.87;;;15.90;34.80;;;;;;5031809;28;20220;-51
2022/03/23 09:44:12;;;;;;;3.17;2.70;;;16.10;34.20;;;;;;5031406;28;20437;-52
2022/03/23 09:46:38;;;;;;;3.80;3.20;;;16.40;32.60;;;;;;5031744;28;20268;-51
2022/03/23 09:49:06;;;;;;;3.40;3.00;;;16.40;32.40;;;;;;5031813;28;20183;-55
2022/03/23 09:51:33;;;;;;;3.70;3.40;;;16.50;32.60;;;;;;5031540;28;20176;-50
2022/03/23 09:54:01;;;;;;;3.43;3.00;;;16.80;31.50;;;;;;5031482;28;20255;-56
2022/03/23 09:56:26;;;;;;;3.67;3.37;;;17.10;31.00;;;;;;5031707;28;20192;-54
2022/03/23 09:58:52;;;;;;;3.17;2.80;;;17.40;30.20;;;;;;5031646;28;20186;-54
2022/03/23 10:01:30;;;;;;;3.27;2.97;;;17.50;29.40;;;;;;5031558;28;20246;-55
2022/03/23 10:04:14;;;;;;;3.43;2.90;;;17.90;29.60;;;;;;5031346;28;20184;-57
2022/03/23 10:07:14;;;;;;;4.63;3.53;;;18.40;30.50;;;;;;5031378;28;20274;-56
2022/03/23 10:10:04;;;;;;;3.60;3.30;;;18.80;30.10;;;;;;5031556;28;20172;-57
2022/03/23 10:12:39;;;;;;;3.80;3.37;;;19.30;31.20;;;;;;5031048;28;20215;-56
2022/03/23 10:15:42;;;;;;;3.53;3.23;;;19.90;29.50;;;;;;5031525;28;20255;-53
2022/03/23 10:18:45;;;;;;;3.90;3.30;;;20.60;29.50;;;;;;5031452;28;20207;-53
2022/03/23 10:21:10;;;;;;;3.70;3.33;;;21.40;28.40;;;;;;5031315;28;20161;-49
2022/03/23 10:23:36;;;;;;;3.35;3.05;;;22.40;29.30;;;;;;5031182;28;20217;-55
2022/03/23 10:26:12;;;;;;;4.65;2.70;;;23.10;27.10;;;;;;5031381;28;20179;-51
2022/03/23 10:28:38;;;;;;;3.25;2.95;;;23.80;26.20;;;;;;5034161;28;20528;-52
2022/03/23 10:31:15;;;;;;;3.22;2.80;;;23.90;25.80;;;;;;5035114;28;20164;-54
2022/03/23 10:33:41;;;;;;;4.50;3.00;;;24.70;23.50;;;;;;5034781;28;20191;-53
2022/03/23 10:36:06;;;;;;;3.15;2.65;;;25.30;25.10;;;;;;5035026;28;20179;-55
2022/03/23 10:38:38;;;;;;;3.20;2.90;;;26.80;24.00;;;;;;5035021;28;20172;-51
2022/03/23 10:41:23;;;;;;;3.15;2.95;;;28.90;21.80;;;;;;5035114;28;20187;-52
2022/03/23 10:43:49;;;;;;;3.58;2.80;;;31.10;21.00;;;;;;5034586;28;20178;-58
2022/03/23 10:46:14;;;;;;;3.63;3.33;;;33.90;19.90;;;;;;5034879;28;20168;-55
2022/03/23 10:48:51;;;;;;;5.47;2.78;;;36.00;18.60;;;;;;5034845;28;20175;-56
2022/03/23 10:51:27;;;;;;;3.55;3.22;;;37.80;18.00;;;;;;5034803;28;20186;-58
2022/03/23 10:53:53;;;;;;;3.78;3.35;;;38.80;17.10;;;;;;5034375;28;20262;-57
2022/03/23 10:56:31;;;;;;;3.30;3.10;;;39.20;16.70;;;;;;5034666;28;20290;-54
2022/03/23 10:59:22;;;;;;;3.50;3.15;;;39.60;18.30;;;;;;5016860;28;20614;-56
2022/03/23 11:02:08;;;;;;;3.38;2.75;;;40.20;16.70;;;;;;5034757;28;20521;-54
2022/03/23 11:04:49;;;;;;;3.33;3.03;;;41.50;15.60;;;;;;5034190;28;20174;-56
2022/03/23 11:07:28;;;;;;;3.58;3.25;;;42.80;15.20;;;;;;5034381;28;20203;-56
2022/03/23 11:18:11;;;;;;;3.00;2.75;;;44.50;15.10;;;;;;5034401;28;20629;-51
2022/03/23 11:20:41;;;;;;;3.50;3.20;;;42.80;15.10;;;;;;5034154;28;20178;-54
2022/03/23 11:23:27;;;;;;;3.70;3.35;;;41.50;15.10;;;;;;5033932;28;20290;-55
2022/03/23 11:26:07;;;;;;;3.60;3.13;;;40.20;16.50;;;;;;5034110;28;20229;-58
2022/03/23 11:28:36;;;;;;;3.13;2.70;;;39.90;15.00;;;;;;5034166;28;20176;-56
2022/03/23 11:31:04;;;;;;;3.38;3.08;;;41.10;13.90;;;;;;5034023;28;20203;-56
2022/03/23 11:33:34;;;;;;;3.58;2.90;;;42.90;14.20;;;;;;5033641;28;20203;-56
2022/03/23 11:36:02;;;;;;;3.30;3.00;;;43.20;14.50;;;;;;5033843;28;20241;-54
2022/03/23 11:38:29;;;;;;;4.07;3.05;;;41.50;15.00;;;;;;5033897;28;20175;-56
2022/03/23 11:40:56;;;;;;;4.47;2.90;;;40.30;16.80;;;;;;5033778;28;20164;-54
2022/03/23 11:43:25;;;;;;;3.95;3.20;;;38.40;16.20;;;;;;5033621;28;20563;-54
2022/03/23 11:45:53;;;;;;;4.18;3.17;;;36.20;17.10;;;;;;5033699;28;20194;-58
2022/03/23 11:48:49;;;;;;;3.75;3.13;;;35.10;18.00;;;;;;5033637;28;20183;-52
2022/03/23 11:51:42;;;;;;;3.90;3.10;;;34.20;18.80;;;;;;5007238;28;20214;-54
2022/03/23 11:55:37;;;;;;;3.20;2.95;;;34.10;19.90;;;;;;5033470;28;20189;-55
2022/03/23 11:57:19;;;;;;;3.33;3.03;;;34.20;18.70;;;;;;5048701;22;20234;-88
2022/03/23 11:59:45;;;;;;;3.67;3.38;;;32.90;19.90;;;;;;5024963;28;20179;-90
2022/03/23 12:02:11;;;;;;;3.08;2.88;;;33.70;18.50;;;;;;5024421;28;20186;-91
2022/03/23 12:04:36;;;;;;;3.05;2.85;;;35.40;17.90;;;;;;5022686;28;20175;-90
2022/03/23 12:07:07;;;;;;;3.03;2.63;;;37.30;17.00;;;;;;5022026;28;20248;-90
2022/03/23 12:09:38;;;;;;;3.30;3.00;;;39.40;16.50;;;;;;5025092;28;20549;-88
2022/03/23 12:12:10;;;;;;;3.08;2.88;;;40.10;15.10;;;;;;5023840;28;20423;-87
2022/03/23 12:14:37;;;;;;;3.38;2.60;;;39.30;15.80;;;;;;5020766;28;20182;-90
2022/03/23 12:17:16;;;;;;;3.10;2.90;;;37.50;17.20;;;;;;5023472;28;20176;-88
2022/03/23 12:19:57;;;;;;;3.13;2.60;;;36.90;16.30;;;;;;5022152;28;20179;-86
2022/03/23 12:22:32;;;;;;;3.20;2.95;;;37.10;16.40;;;;;;5022904;28;20207;-90
2022/03/23 12:25:20;;;;;;;3.25;2.95;;;36.40;16.60;;;;;;5023915;28;20190;-89
2022/03/23 12:27:46;;;;;;;2.65;2.45;;;36.60;16.20;;;;;;5025185;28;20242;-91
2022/03/23 12:30:33;;;;;;;2.92;2.60;;;37.00;17.50;;;;;;5022680;28;20267;-86
2022/03/23 12:33:06;;;;;;;2.53;2.33;;;35.20;17.70;;;;;;5022118;28;20515;-88
2022/03/23 12:35:38;;;;;;;2.72;2.47;;;34.70;17.90;;;;;;5023193;28;20586;-90
2022/03/23 12:38:27;;;;;;;4.47;2.92;;;33.70;18.40;;;;;;5022193;28;20175;-89
2022/03/23 12:40:57;;;;;;;2.92;2.70;;;33.20;19.90;;;;;;5023290;28;20213;-88
2022/03/23 12:43:42;;;;;;;2.80;2.60;;;33.80;18.50;;;;;;5001616;28;20265;-89
2022/03/23 12:46:28;;;;;;;3.00;2.70;;;33.10;18.50;;;;;;5001660;28;20176;-90
2022/03/23 12:57:52;;;;;;;3.15;2.58;;;31.70;19.10;;;;;;5023069;28;20246;-89
2022/03/23 13:00:30;;;;;;;3.00;2.70;;;32.00;19.00;;;;;;5002198;28;20215;-89
2022/03/23 13:03:08;;;;;;;3.28;2.63;;;31.60;18.80;;;;;;5002596;28;20231;-91
2022/03/23 13:05:36;;;;;;;4.72;3.20;;;31.60;18.20;;;;;;5004000;28;20198;-88
2022/03/23 13:08:27;;;;;;;3.33;2.70;;;31.70;18.30;;;;;;5000263;28;20242;-87
2022/03/23 13:11:08;;;;;;;2.97;2.78;;;30.30;19.80;;;;;;5005780;28;20183;-88
2022/03/23 13:13:38;;;;;;;3.88;2.88;;;29.80;19.80;;;;;;5002989;28;20245;-90
2022/03/23 13:16:11;;;;;;;4.05;2.90;;;29.10;20.30;;;;;;5001758;28;20233;-91
2022/03/23 13:18:38;;;;;;;4.45;3.20;;;28.40;21.20;;;;;;4999154;28;20284;-91
2022/03/23 13:21:10;;;;;;;3.63;3.33;;;28.40;20.30;;;;;;5003032;28;20225;-89
2022/03/23 13:23:47;;;;;;;4.80;2.90;;;28.20;20.80;;;;;;4999220;28;20309;-91
2022/03/23 13:26:26;;;;;;;3.20;2.90;;;27.80;21.20;;;;;;5001803;28;20173;-90
2022/03/23 13:29:01;;;;;;;2.97;2.75;;;27.20;21.60;;;;;;5004439;28;20182;-88
2022/03/23 13:31:31;;;;;;;3.45;2.90;;;27.00;22.50;;;;;;5002563;28;20180;-87
2022/03/23 13:34:03;;;;;;;3.92;3.10;;;26.50;23.10;;;;;;4996815;28;20180;-90
2022/03/23 13:36:30;;;;;;;6.50;3.30;;;26.40;21.10;;;;;;5000265;28;20180;-90
2022/03/23 13:38:57;;;;;;;2.95;2.75;;;26.60;22.30;;;;;;5004157;28;20180;-86